createdAt,value
2022-12-16T00:00:06.782Z,-5.70
2022-12-16T00:02:33.816Z,-5.70
2022-12-16T00:05:00.690Z,-5.60
2022-12-16T00:07:28.283Z,-5.60
2022-12-16T00:09:55.075Z,-5.70
2022-12-16T00:12:21.862Z,-5.90
2022-12-16T00:14:48.708Z,-5.90
2022-12-16T00:17:15.570Z,-5.90
2022-12-16T00:19:42.350Z,-5.80
2022-12-16T00:22:09.146Z,-5.90
2022-12-16T00:24:36.081Z,-5.80
2022-12-16T00:27:03.286Z,-6.00
2022-12-16T00:29:30.299Z,-5.90
2022-12-16T00:31:57.109Z,-5.80
2022-12-16T00:34:24.017Z,-5.80
2022-12-16T00:36:50.775Z,-5.80
2022-12-16T00:39:17.659Z,-5.80
2022-12-16T00:41:44.548Z,-5.80
2022-12-16T00:44:11.624Z,-5.80
2022-12-16T00:46:38.389Z,-5.80
2022-12-16T00:49:05.352Z,-5.90
2022-12-16T00:51:32.195Z,-6.00
2022-12-16T00:53:58.972Z,-6.10
2022-12-16T00:56:25.768Z,-6.10
2022-12-16T00:58:52.621Z,-6.10
2022-12-16T01:01:21.741Z,-6.10
2022-12-16T01:03:48.787Z,-6.10
2022-12-16T01:06:17.939Z,-6.10
2022-12-16T01:08:51.260Z,-6.10
2022-12-16T01:11:20.246Z,-6.10
2022-12-16T01:13:50.563Z,-6.00
2022-12-16T01:16:19.321Z,-6.10
2022-12-16T01:18:46.174Z,-6.10
2022-12-16T01:21:14.836Z,-6.10
2022-12-16T01:23:41.598Z,-6.00
2022-12-16T01:26:09.644Z,-5.90
2022-12-16T01:28:36.434Z,-6.00
2022-12-16T01:31:03.251Z,-6.00
2022-12-16T01:33:32.659Z,-6.00
2022-12-16T01:36:05.753Z,-6.00
2022-12-16T01:38:32.807Z,-6.00
2022-12-16T01:40:59.765Z,-6.00
2022-12-16T01:43:33.661Z,-6.00
2022-12-16T01:46:18.957Z,-6.10
2022-12-16T01:48:52.454Z,-6.20
2022-12-16T01:51:29.589Z,-6.20
2022-12-16T01:54:03.604Z,-6.10
2022-12-16T01:56:33.158Z,-6.30
2022-12-16T01:59:01.946Z,-6.30
2022-12-16T02:01:28.952Z,-6.40
2022-12-16T02:03:58.905Z,-6.40
2022-12-16T02:06:25.716Z,-6.40
2022-12-16T02:08:56.982Z,-6.40
2022-12-16T02:11:43.639Z,-6.30
2022-12-16T02:14:37.244Z,-6.20
2022-12-16T02:17:19.430Z,-6.40
2022-12-16T02:20:18.067Z,-6.40
2022-12-16T02:23:03.685Z,-6.50
2022-12-16T02:25:55.456Z,-6.50
2022-12-16T02:28:40.795Z,-6.50
2022-12-16T02:31:39.460Z,-6.50
2022-12-16T02:34:28.414Z,-6.50
2022-12-16T02:37:10.218Z,-6.40
2022-12-16T02:39:49.198Z,-6.30
2022-12-16T02:42:48.309Z,-6.50
2022-12-16T02:45:23.104Z,-6.50
2022-12-16T02:47:49.879Z,-6.60
2022-12-16T02:50:22.336Z,-6.70
2022-12-16T02:52:50.453Z,-6.70
2022-12-16T02:55:17.542Z,-6.80
2022-12-16T02:57:59.421Z,-6.80
2022-12-16T03:00:28.330Z,-6.80
2022-12-16T03:03:18.359Z,-6.70
2022-12-16T03:05:48.639Z,-6.70
2022-12-16T03:08:31.336Z,-6.60
2022-12-16T03:11:01.949Z,-6.50
2022-12-16T03:13:35.684Z,-6.50
2022-12-16T03:16:05.210Z,-6.50
2022-12-16T03:18:33.673Z,-6.60
2022-12-16T03:21:03.911Z,-6.60
2022-12-16T03:23:58.693Z,-6.70
2022-12-16T03:26:30.028Z,-6.80
2022-12-16T03:29:11.467Z,-6.80
2022-12-16T03:31:50.140Z,-6.70
2022-12-16T03:34:43.535Z,-6.80
2022-12-16T03:37:13.054Z,-6.80
2022-12-16T03:39:47.865Z,-6.80
2022-12-16T03:42:15.994Z,-6.70
2022-12-16T03:44:44.990Z,-6.60
2022-12-16T03:47:11.890Z,-6.50
2022-12-16T03:49:39.404Z,-6.50
2022-12-16T03:52:06.465Z,-6.60
2022-12-16T03:54:33.610Z,-6.60
2022-12-16T03:57:00.437Z,-6.60
2022-12-16T03:59:27.150Z,-6.70
2022-12-16T04:01:54.003Z,-6.70
2022-12-16T04:04:21.190Z,-6.80
2022-12-16T04:07:08.193Z,-6.70
2022-12-16T04:09:35.035Z,-6.80
2022-12-16T04:12:20.358Z,-6.70
2022-12-16T04:15:05.920Z,-6.70
2022-12-16T04:17:51.525Z,-6.80
2022-12-16T04:20:37.954Z,-6.70
2022-12-16T04:23:23.896Z,-6.80
2022-12-16T04:25:50.750Z,-6.80
2022-12-16T04:28:17.858Z,-6.70
2022-12-16T04:30:44.681Z,-6.70
2022-12-16T04:33:32.918Z,-6.80
2022-12-16T04:36:36.124Z,-6.70
2022-12-16T04:39:21.762Z,-6.80
2022-12-16T04:42:10.515Z,-6.80
2022-12-16T04:44:56.012Z,-6.90
2022-12-16T04:47:41.470Z,-6.90
2022-12-16T04:50:26.971Z,-6.90
2022-12-16T04:53:12.566Z,-6.70
2022-12-16T04:56:03.844Z,-6.60
2022-12-16T04:58:50.302Z,-6.70
2022-12-16T05:01:35.795Z,-6.80
2022-12-16T05:04:21.666Z,-6.80
2022-12-16T05:07:07.276Z,-6.70
2022-12-16T05:09:52.495Z,-6.80
2022-12-16T05:12:38.071Z,-6.70
2022-12-16T05:15:24.142Z,-6.80
2022-12-16T05:18:09.738Z,-6.90
2022-12-16T05:20:55.045Z,-6.90
2022-12-16T05:23:40.778Z,-6.70
2022-12-16T05:26:26.293Z,-6.70
2022-12-16T05:29:11.954Z,-6.70
2022-12-16T05:31:57.369Z,-6.80
2022-12-16T05:34:43.315Z,-6.70
2022-12-16T05:37:28.939Z,-6.80
2022-12-16T05:40:14.094Z,-6.90
2022-12-16T05:42:59.516Z,-6.90
2022-12-16T05:45:45.216Z,-6.90
2022-12-16T05:48:30.912Z,-6.80
2022-12-16T05:51:29.802Z,-6.70
2022-12-16T05:54:15.374Z,-6.60
2022-12-16T05:57:00.871Z,-6.60
2022-12-16T05:59:46.482Z,-6.60
2022-12-16T06:02:48.592Z,-6.60
2022-12-16T06:05:34.095Z,-6.60
2022-12-16T06:08:19.404Z,-6.70
2022-12-16T06:11:04.829Z,-6.80
2022-12-16T06:13:50.412Z,-6.70
2022-12-16T06:16:36.016Z,-6.80
2022-12-16T06:19:21.308Z,-6.90
2022-12-16T06:22:06.789Z,-6.90
2022-12-16T06:24:52.285Z,-6.80
2022-12-16T06:27:38.019Z,-6.80
2022-12-16T06:30:23.687Z,-6.90
2022-12-16T06:33:09.283Z,-7.00
2022-12-16T06:35:54.869Z,-7.00
2022-12-16T06:38:40.234Z,-6.80
2022-12-16T06:41:25.869Z,-6.80
2022-12-16T06:44:11.180Z,-6.90
2022-12-16T06:46:56.672Z,-7.00
2022-12-16T06:49:42.203Z,-6.80
2022-12-16T06:52:27.632Z,-6.90
2022-12-16T06:55:13.250Z,-7.00
2022-12-16T06:57:59.302Z,-6.90
2022-12-16T07:00:45.290Z,-6.90
2022-12-16T07:03:35.423Z,-6.80
2022-12-16T07:06:21.326Z,-6.90
2022-12-16T07:09:07.270Z,-6.90
2022-12-16T07:12:03.042Z,-6.80
2022-12-16T07:14:48.560Z,-6.80
2022-12-16T07:17:33.778Z,-6.90
2022-12-16T07:20:19.241Z,-6.80
2022-12-16T07:23:12.175Z,-6.80
2022-12-16T07:26:03.227Z,-6.80
2022-12-16T07:28:48.486Z,-6.80
2022-12-16T07:31:33.946Z,-6.70
2022-12-16T07:34:19.271Z,-6.80
2022-12-16T07:37:04.680Z,-6.80
2022-12-16T07:39:54.771Z,-6.80
2022-12-16T07:42:41.586Z,-6.90
2022-12-16T07:45:27.776Z,-6.90
2022-12-16T07:48:13.539Z,-6.80
2022-12-16T07:50:59.866Z,-6.70
2022-12-16T07:53:45.120Z,-6.60
2022-12-16T07:56:30.509Z,-6.50
2022-12-16T07:59:16.119Z,-6.50
2022-12-16T08:02:01.771Z,-6.50
2022-12-16T08:04:47.127Z,-6.50
2022-12-16T08:07:32.838Z,-6.50
2022-12-16T08:10:17.978Z,-6.50
2022-12-16T08:13:03.699Z,-6.50
2022-12-16T08:15:49.022Z,-6.50
2022-12-16T08:18:34.467Z,-6.50
2022-12-16T08:21:27.791Z,-6.40
2022-12-16T08:24:14.768Z,-6.40
2022-12-16T08:27:00.877Z,-6.30
2022-12-16T08:29:46.732Z,-6.30
2022-12-16T08:32:39.860Z,-6.20
2022-12-16T08:35:32.228Z,-6.20
2022-12-16T08:38:18.493Z,-6.20
2022-12-16T08:43:58.064Z,-6.00
2022-12-16T08:46:45.606Z,-6.00
2022-12-16T08:49:38.516Z,-6.00
2022-12-16T08:55:49.153Z,-6.00
2022-12-16T08:58:38.501Z,-6.00
2022-12-16T09:01:34.981Z,-5.90
2022-12-16T09:04:20.841Z,-5.80
2022-12-16T09:07:07.217Z,-5.70
2022-12-16T09:09:58.807Z,-5.70
2022-12-16T09:12:51.074Z,-5.60
2022-12-16T09:15:37.153Z,-5.50
2022-12-16T09:18:30.339Z,-5.40
2022-12-16T09:21:20.435Z,-5.30
2022-12-16T09:24:08.299Z,-5.30
2022-12-16T09:26:54.424Z,-5.20
2022-12-16T09:29:45.044Z,-5.20
2022-12-16T09:32:31.162Z,-5.20
2022-12-16T09:35:16.767Z,-5.10
2022-12-16T09:38:06.848Z,-5.00
2022-12-16T09:40:52.855Z,-4.90
2022-12-16T09:44:07.712Z,-4.90
2022-12-16T09:47:16.706Z,-4.70
2022-12-16T09:50:04.902Z,-4.50
2022-12-16T09:53:03.265Z,-4.50
2022-12-16T09:55:57.501Z,-4.50
2022-12-16T09:59:00.141Z,-4.40
2022-12-16T10:01:51.054Z,-4.40
2022-12-16T10:04:36.717Z,-4.30
2022-12-16T10:07:23.328Z,-4.20
2022-12-16T10:10:27.913Z,-4.10
2022-12-16T10:13:32.955Z,-3.90
2022-12-16T10:16:48.686Z,-3.80
2022-12-16T10:19:53.362Z,-3.60
2022-12-16T10:23:01.632Z,-3.50
2022-12-16T10:26:18.849Z,-3.40
2022-12-16T10:29:16.191Z,-3.30
2022-12-16T10:32:02.175Z,-3.30
2022-12-16T10:34:51.454Z,-3.20
2022-12-16T10:37:54.288Z,-3.20
2022-12-16T10:40:48.569Z,-3.10
2022-12-16T10:43:54.400Z,-3.10
2022-12-16T10:46:47.487Z,-2.90
2022-12-16T10:49:37.803Z,-2.90
2022-12-16T10:52:24.604Z,-2.80
2022-12-16T10:55:41.484Z,-2.80
2022-12-16T10:59:10.636Z,-2.70
2022-12-16T11:02:00.175Z,-2.60
2022-12-16T11:04:57.112Z,-2.50
2022-12-16T11:08:10.605Z,-2.50
2022-12-16T11:11:01.058Z,-2.20
2022-12-16T11:13:51.016Z,-2.10
2022-12-16T11:16:43.600Z,-2.00
2022-12-16T11:19:43.707Z,-1.90
2022-12-16T11:22:41.150Z,-1.80
2022-12-16T11:25:37.397Z,-1.80
2022-12-16T11:28:24.805Z,-1.70
2022-12-16T11:31:16.372Z,-1.50
2022-12-16T11:34:03.298Z,-1.50
2022-12-16T11:36:51.976Z,-1.40
2022-12-16T11:39:42.853Z,-1.30
2022-12-16T11:42:38.402Z,-1.30
2022-12-16T11:45:25.274Z,-1.30
2022-12-16T11:48:19.335Z,-1.10
2022-12-16T11:51:12.196Z,-1.00
2022-12-16T11:54:09.187Z,-0.80
2022-12-16T11:57:02.316Z,-0.80
2022-12-16T12:00:18.722Z,-0.70
2022-12-16T12:03:12.852Z,-0.70
2022-12-16T12:06:36.026Z,-0.70
2022-12-16T12:09:36.278Z,-0.60
2022-12-16T12:12:33.850Z,-0.60
2022-12-16T12:16:03.184Z,-0.50
2022-12-16T12:19:10.849Z,-0.50
2022-12-16T12:22:23.372Z,-0.40
2022-12-16T12:25:24.132Z,-0.40
2022-12-16T12:28:26.883Z,-0.30
2022-12-16T12:31:37.571Z,-0.20
2022-12-16T12:34:49.845Z,-0.10
2022-12-16T12:37:58.660Z,0.00
2022-12-16T12:40:59.100Z,0.10
2022-12-16T12:43:54.582Z,0.00
2022-12-16T12:46:51.426Z,0.10
2022-12-16T12:50:00.886Z,0.20
2022-12-16T12:52:49.760Z,0.30
2022-12-16T12:56:01.751Z,0.30
2022-12-16T12:58:51.325Z,0.40
2022-12-16T13:01:39.775Z,0.40
2022-12-16T13:04:37.698Z,0.30
2022-12-16T13:07:24.652Z,0.30
2022-12-16T13:10:31.978Z,0.40
2022-12-16T13:13:36.533Z,0.50
2022-12-16T13:16:27.534Z,0.50
2022-12-16T13:19:54.642Z,0.60
2022-12-16T13:22:55.013Z,0.60
2022-12-16T13:26:03.492Z,0.50
2022-12-16T13:28:52.488Z,0.60
2022-12-16T13:31:58.148Z,0.60
2022-12-16T13:35:04.618Z,0.50
2022-12-16T13:37:49.983Z,0.40
2022-12-16T13:40:40.019Z,0.50
2022-12-16T13:43:55.994Z,0.50
2022-12-16T13:47:03.986Z,0.50
2022-12-16T13:49:55.084Z,0.40
2022-12-16T13:52:49.493Z,0.40
2022-12-16T13:56:03.441Z,0.40
2022-12-16T13:58:59.384Z,0.40
2022-12-16T14:02:00.562Z,0.40
2022-12-16T14:04:50.120Z,0.40
2022-12-16T14:07:36.489Z,0.40
2022-12-16T14:10:23.100Z,0.30
2022-12-16T14:13:35.483Z,0.20
2022-12-16T14:16:34.948Z,0.10
2022-12-16T14:19:48.150Z,0.10
2022-12-16T14:23:05.099Z,0.00
2022-12-16T14:25:50.760Z,-0.10
2022-12-16T14:28:53.734Z,-0.10
2022-12-16T14:31:55.169Z,-0.20
2022-12-16T14:34:46.217Z,-0.20
2022-12-16T14:37:39.640Z,-0.30
2022-12-16T14:40:41.705Z,-0.30
2022-12-16T14:43:36.801Z,-0.30
2022-12-16T14:46:23.015Z,-0.40
2022-12-16T14:49:09.821Z,-0.40
2022-12-16T14:51:57.029Z,-0.40
2022-12-16T14:54:54.958Z,-0.50
2022-12-16T14:58:06.418Z,-0.40
2022-12-16T15:00:53.759Z,-0.50
2022-12-16T15:04:22.921Z,-0.70
2022-12-16T15:07:11.649Z,-0.70
2022-12-16T15:10:10.961Z,-0.80
2022-12-16T15:13:01.858Z,-0.90
2022-12-16T15:15:55.420Z,-0.90
2022-12-16T15:18:52.299Z,-1.00
2022-12-16T15:21:38.201Z,-1.10
2022-12-16T15:24:44.885Z,-1.20
2022-12-16T15:27:41.357Z,-1.30
2022-12-16T15:30:55.824Z,-1.40
2022-12-16T15:33:54.690Z,-1.60
2022-12-16T15:36:54.898Z,-1.70
2022-12-16T15:39:48.651Z,-1.80
2022-12-16T15:42:46.704Z,-1.90
2022-12-16T15:45:44.674Z,-1.90
2022-12-16T15:48:38.740Z,-2.00
2022-12-16T15:51:50.725Z,-2.10
2022-12-16T15:54:38.988Z,-2.20
2022-12-16T15:57:49.458Z,-2.30
2022-12-16T16:00:44.458Z,-2.30
2022-12-16T16:03:36.011Z,-2.40
2022-12-16T16:06:22.277Z,-2.40
2022-12-16T16:09:12.124Z,-2.60
2022-12-16T16:11:57.564Z,-2.60
2022-12-16T16:14:42.767Z,-2.60
2022-12-16T16:17:40.400Z,-2.60
2022-12-16T16:20:32.006Z,-2.60
2022-12-16T16:23:17.315Z,-2.60
2022-12-16T16:26:04.261Z,-2.70
2022-12-16T16:28:49.975Z,-2.70
2022-12-16T16:31:35.322Z,-2.70
2022-12-16T16:34:20.967Z,-2.70
2022-12-16T16:37:13.606Z,-2.80
2022-12-16T16:40:00.159Z,-2.90
2022-12-16T16:42:46.076Z,-2.90
2022-12-16T16:45:31.803Z,-2.90
2022-12-16T16:48:29.397Z,-3.00
2022-12-16T16:51:16.045Z,-2.90
2022-12-16T16:54:01.616Z,-2.90
2022-12-16T16:56:51.265Z,-3.00
2022-12-16T16:59:37.366Z,-3.00
2022-12-16T17:02:41.107Z,-3.00
2022-12-16T17:05:27.987Z,-3.10
2022-12-16T17:08:13.744Z,-3.10
2022-12-16T17:10:59.148Z,-3.10
2022-12-16T17:13:44.574Z,-3.30
2022-12-16T17:16:31.691Z,-3.20
2022-12-16T17:19:18.152Z,-3.30
2022-12-16T17:22:03.510Z,-3.20
2022-12-16T17:24:53.724Z,-3.20
2022-12-16T17:27:42.652Z,-3.20
2022-12-16T17:30:46.979Z,-3.10
2022-12-16T17:33:34.840Z,-3.20
2022-12-16T17:36:34.366Z,-3.10
2022-12-16T17:39:19.797Z,-3.20
2022-12-16T17:42:05.271Z,-3.30
2022-12-16T17:44:50.844Z,-3.30
2022-12-16T17:47:36.336Z,-3.30
2022-12-16T17:50:23.081Z,-3.40
2022-12-16T17:53:13.371Z,-3.40
2022-12-16T17:55:58.650Z,-3.40
2022-12-16T17:58:51.981Z,-3.30
2022-12-16T18:01:38.426Z,-3.40
2022-12-16T18:04:24.395Z,-3.30
2022-12-16T18:07:10.208Z,-3.40
2022-12-16T18:09:55.871Z,-3.50
2022-12-16T18:12:42.094Z,-3.50
2022-12-16T18:15:28.568Z,-3.60
2022-12-16T18:18:13.910Z,-3.60
2022-12-16T18:20:59.201Z,-3.50
2022-12-16T18:23:48.631Z,-3.60
2022-12-16T18:26:34.206Z,-3.70
2022-12-16T18:29:19.719Z,-3.70
2022-12-16T18:32:07.403Z,-3.80
2022-12-16T18:34:52.849Z,-3.80
2022-12-16T18:37:38.684Z,-3.70
2022-12-16T18:40:24.725Z,-3.70
2022-12-16T18:43:10.332Z,-3.80
2022-12-16T18:45:55.824Z,-3.80
2022-12-16T18:48:41.684Z,-3.70
2022-12-16T18:51:26.971Z,-3.80
2022-12-16T18:54:12.633Z,-3.90
2022-12-16T18:56:58.014Z,-3.90
2022-12-16T18:59:43.596Z,-3.90
2022-12-16T19:02:29.020Z,-3.90
2022-12-16T19:05:14.794Z,-3.80
2022-12-16T19:08:00.009Z,-3.90
2022-12-16T19:10:45.403Z,-3.90
2022-12-16T19:13:34.063Z,-3.90
2022-12-16T19:16:21.466Z,-3.90
2022-12-16T19:19:07.083Z,-4.00
2022-12-16T19:21:56.506Z,-4.00
2022-12-16T19:24:43.276Z,-4.00
2022-12-16T19:27:34.634Z,-3.90
2022-12-16T19:30:20.241Z,-4.00
2022-12-16T19:33:07.371Z,-4.10
2022-12-16T19:36:12.610Z,-4.10
2022-12-16T19:38:58.154Z,-4.10
2022-12-16T19:41:43.742Z,-4.10
2022-12-16T19:44:29.133Z,-4.20
2022-12-16T19:47:14.486Z,-4.20
2022-12-16T19:50:01.993Z,-4.20
2022-12-16T19:52:47.478Z,-4.20
2022-12-16T19:55:33.123Z,-4.20
2022-12-16T19:58:19.158Z,-4.10
2022-12-16T20:01:04.676Z,-4.10
2022-12-16T20:03:50.499Z,-4.10
2022-12-16T20:06:36.569Z,-4.10
2022-12-16T20:09:22.241Z,-4.20
2022-12-16T20:12:07.488Z,-4.30
2022-12-16T20:14:53.831Z,-4.30
2022-12-16T20:17:42.151Z,-4.30
2022-12-16T20:20:27.538Z,-4.30
2022-12-16T20:23:14.803Z,-4.30
2022-12-16T20:26:00.035Z,-4.30
2022-12-16T20:28:45.316Z,-4.30
2022-12-16T20:31:30.763Z,-4.30
2022-12-16T20:34:16.231Z,-4.40
2022-12-16T20:37:01.612Z,-4.40
2022-12-16T20:42:53.522Z,-4.50
2022-12-16T20:45:39.324Z,-4.40
2022-12-16T20:48:25.137Z,-4.50
2022-12-16T20:51:18.559Z,-4.40
2022-12-16T20:54:09.005Z,-4.40
2022-12-16T20:56:54.732Z,-4.40
2022-12-16T20:59:40.091Z,-4.30
2022-12-16T21:02:33.009Z,-4.30
2022-12-16T21:05:19.573Z,-4.40
2022-12-16T21:08:04.903Z,-4.40
2022-12-16T21:10:51.627Z,-4.50
2022-12-16T21:13:37.551Z,-4.50
2022-12-16T21:16:24.859Z,-4.60
2022-12-16T21:19:10.842Z,-4.60
2022-12-16T21:21:56.730Z,-4.60
2022-12-16T21:24:42.445Z,-4.60
2022-12-16T21:27:27.785Z,-4.60
2022-12-16T21:30:13.163Z,-4.60
2022-12-16T21:32:58.889Z,-4.60
2022-12-16T21:35:44.431Z,-4.50
2022-12-16T21:38:31.125Z,-4.60
2022-12-16T21:41:16.774Z,-4.60
2022-12-16T21:44:02.284Z,-4.60
2022-12-16T21:46:47.659Z,-4.60
2022-12-16T21:49:33.242Z,-4.60
2022-12-16T21:52:19.056Z,-4.60
2022-12-16T21:55:04.268Z,-4.60
2022-12-16T21:57:49.498Z,-4.70
2022-12-16T22:00:35.797Z,-4.60
2022-12-16T22:03:21.378Z,-4.60
2022-12-16T22:06:07.074Z,-4.70
2022-12-16T22:08:52.691Z,-4.70
2022-12-16T22:11:41.641Z,-4.60
2022-12-16T22:14:27.434Z,-4.70
2022-12-16T22:17:12.736Z,-4.60
2022-12-16T22:19:58.991Z,-4.60
2022-12-16T22:22:45.143Z,-4.60
2022-12-16T22:25:30.652Z,-4.70
2022-12-16T22:28:15.916Z,-4.70
2022-12-16T22:31:01.772Z,-4.60
2022-12-16T22:33:47.379Z,-4.70
2022-12-16T22:36:33.300Z,-4.60
2022-12-16T22:39:18.789Z,-4.70
2022-12-16T22:42:04.387Z,-4.60
2022-12-16T22:44:50.002Z,-4.50
2022-12-16T22:47:35.272Z,-4.50
2022-12-16T22:50:34.335Z,-4.60
2022-12-16T22:53:19.992Z,-4.60
2022-12-16T22:56:12.583Z,-4.50
2022-12-16T22:58:57.844Z,-4.50
2022-12-16T23:01:43.944Z,-4.50
2022-12-16T23:04:29.605Z,-4.40
2022-12-16T23:07:14.978Z,-4.40
2022-12-16T23:10:00.164Z,-4.40
2022-12-16T23:12:45.675Z,-4.30
2022-12-16T23:15:31.836Z,-4.20
2022-12-16T23:18:17.940Z,-4.00
2022-12-16T23:21:08.160Z,-4.00
2022-12-16T23:23:53.725Z,-3.90
2022-12-16T23:26:42.282Z,-4.00
2022-12-16T23:29:27.932Z,-3.90
2022-12-16T23:32:13.376Z,-3.80
2022-12-16T23:34:58.667Z,-3.70
2022-12-16T23:37:43.945Z,-3.60
2022-12-16T23:40:30.089Z,-3.50
2022-12-16T23:43:15.314Z,-3.40
2022-12-16T23:46:02.498Z,-3.30
2022-12-16T23:48:48.104Z,-3.30
2022-12-16T23:51:33.724Z,-3.30
2022-12-16T23:54:19.163Z,-3.40
2022-12-16T23:57:04.452Z,-3.30
2022-12-16T23:59:50.180Z,-3.30
